Time;durP1;ratioP1;P1;durP2;ratioP2;P2;SDS_P1;SDS_P2;PMS_P1;PMS_P2;Temp;Humidity;BMP_temperature;BMP_pressure;BME280_temperature;BME280_humidity;BME280_pressure;Samples;Min_cycle;Max_cycle;Signal;HPM_P1;HPM_P2
2022/07/06 00:01:40;;;;;;;2.97;1.00;;;14.90;99.90;;;;;;4991264;28;20049;-70
2022/07/06 00:04:07;;;;;;;3.60;1.13;;;14.90;99.90;;;;;;4969211;28;20045;-69
2022/07/06 00:06:32;;;;;;;4.25;1.02;;;14.90;99.90;;;;;;5016435;28;20067;-68
2022/07/06 00:08:59;;;;;;;2.03;0.80;;;14.90;99.90;;;;;;5014773;28;20049;-69
2022/07/06 00:11:24;;;;;;;4.65;1.10;;;14.90;99.90;;;;;;4998125;28;20460;-68
2022/07/06 00:13:51;;;;;;;5.90;1.50;;;14.90;99.90;;;;;;4996791;28;20103;-69
2022/07/06 00:16:17;;;;;;;5.35;1.20;;;14.90;99.90;;;;;;5014792;28;20049;-67
2022/07/06 00:18:44;;;;;;;2.45;1.00;;;14.80;99.90;;;;;;5017043;28;20045;-65
2022/07/06 00:21:10;;;;;;;2.97;1.15;;;14.80;99.90;;;;;;5015823;28;20053;-66
2022/07/06 00:23:36;;;;;;;3.25;1.10;;;14.80;99.90;;;;;;4977536;28;20072;-67
2022/07/06 00:26:02;;;;;;;5.63;1.42;;;14.70;99.90;;;;;;5003242;28;20124;-67
2022/07/06 00:28:28;;;;;;;6.53;2.05;;;14.70;99.90;;;;;;4985476;28;20083;-67
2022/07/06 00:30:54;;;;;;;5.50;1.10;;;14.60;99.90;;;;;;4998090;23;20038;-92
2022/07/06 00:33:20;;;;;;;5.85;1.63;;;14.60;99.90;;;;;;5020244;28;20598;-90
2022/07/06 00:35:46;;;;;;;3.90;1.83;;;14.60;99.90;;;;;;5020044;28;20144;-90
2022/07/06 00:38:12;;;;;;;4.70;1.58;;;14.60;99.90;;;;;;5013363;28;20049;-91
2022/07/06 00:40:38;;;;;;;3.65;1.40;;;14.50;99.90;;;;;;5011131;28;20060;-87
2022/07/06 00:46:45;;;;;;;4.28;1.30;;;14.50;99.90;;;;;;5042060;28;20056;-90
2022/07/06 00:50:13;;;;;;;3.58;1.30;;;14.40;99.90;;;;;;5014558;28;20041;-90
2022/07/06 00:51:58;;;;;;;3.30;1.50;;;14.40;99.90;;;;;;5006523;28;20053;-90
2022/07/06 00:54:24;;;;;;;3.60;1.40;;;14.40;99.90;;;;;;4991451;28;20243;-89
2022/07/06 00:56:50;;;;;;;3.40;1.30;;;14.40;99.90;;;;;;5024119;28;20061;-90
2022/07/06 00:59:16;;;;;;;5.25;1.52;;;14.40;99.90;;;;;;5016733;28;20310;-93
2022/07/06 01:01:42;;;;;;;4.05;1.50;;;14.40;99.90;;;;;;4991676;28;20202;-90
2022/07/06 01:04:08;;;;;;;3.92;1.30;;;14.40;99.90;;;;;;5011307;28;20052;-90
2022/07/06 01:06:34;;;;;;;4.55;1.42;;;14.40;99.90;;;;;;5010328;28;20411;-90
2022/07/06 01:09:00;;;;;;;3.10;1.35;;;14.40;99.90;;;;;;5011277;28;20127;-90
2022/07/06 01:11:26;;;;;;;6.38;1.52;;;14.30;99.90;;;;;;5008643;28;20043;-91
2022/07/06 01:13:52;;;;;;;4.32;1.40;;;14.40;99.90;;;;;;5010814;28;20052;-88
2022/07/06 01:16:18;;;;;;;2.97;1.30;;;14.30;99.90;;;;;;5008262;28;20042;-91
2022/07/06 01:18:44;;;;;;;6.90;1.65;;;14.40;99.90;;;;;;5007855;28;20403;-90
2022/07/06 01:21:12;;;;;;;3.28;1.33;;;14.40;99.90;;;;;;4976591;28;20049;-89
2022/07/06 01:23:43;;;;;;;5.00;1.45;;;14.30;99.90;;;;;;4999725;28;20037;-90
2022/07/06 01:26:11;;;;;;;2.92;1.70;;;14.30;99.90;;;;;;5010620;28;20075;-89
2022/07/06 01:28:37;;;;;;;3.88;1.60;;;14.30;99.90;;;;;;4995163;28;20136;-91
2022/07/06 01:31:03;;;;;;;7.70;1.67;;;14.30;99.90;;;;;;5027396;28;20052;-90
2022/07/06 01:33:29;;;;;;;3.55;1.60;;;14.20;99.90;;;;;;4980712;28;20045;-90
2022/07/06 01:35:55;;;;;;;3.88;1.42;;;14.30;99.90;;;;;;5030762;28;20068;-90
2022/07/06 01:38:21;;;;;;;3.60;1.27;;;14.30;99.90;;;;;;5001537;28;20056;-89
2022/07/06 01:40:46;;;;;;;5.10;1.48;;;14.20;99.90;;;;;;5014485;28;20052;-89
2022/07/06 01:43:12;;;;;;;2.55;1.17;;;14.20;99.90;;;;;;5028476;28;20033;-90
2022/07/06 01:45:38;;;;;;;5.35;1.20;;;14.30;99.90;;;;;;5012654;28;20048;-92
2022/07/06 01:48:08;;;;;;;5.50;1.50;;;14.30;99.90;;;;;;4993905;28;20037;-91
2022/07/06 01:50:33;;;;;;;4.00;1.00;;;14.30;99.90;;;;;;5007915;28;20431;-92
2022/07/06 01:53:00;;;;;;;2.70;1.40;;;14.30;99.90;;;;;;5027593;28;20124;-90
2022/07/06 01:55:26;;;;;;;6.38;1.15;;;14.30;99.90;;;;;;5013581;28;20049;-89
2022/07/06 01:57:52;;;;;;;4.50;1.25;;;14.30;99.90;;;;;;4999173;28;20044;-90
2022/07/06 02:00:17;;;;;;;5.28;1.10;;;14.40;99.90;;;;;;4997936;28;20048;-90
2022/07/06 02:02:43;;;;;;;5.07;1.10;;;14.40;99.90;;;;;;5014062;28;20041;-93
2022/07/06 02:05:09;;;;;;;3.92;1.10;;;14.40;99.90;;;;;;4998344;28;20041;-89
2022/07/06 02:07:35;;;;;;;4.50;1.05;;;14.40;99.90;;;;;;4997435;28;20078;-89
2022/07/06 02:10:00;;;;;;;3.70;1.20;;;14.40;99.90;;;;;;4998409;28;20503;-90
2022/07/06 02:12:26;;;;;;;5.80;1.10;;;14.30;99.90;;;;;;4981884;28;20073;-89
2022/07/06 02:14:52;;;;;;;2.92;0.90;;;14.30;99.90;;;;;;4998889;28;20052;-89
2022/07/06 02:17:18;;;;;;;3.28;1.10;;;14.30;99.90;;;;;;4982733;28;20487;-90
2022/07/06 02:19:44;;;;;;;3.85;1.10;;;14.30;99.90;;;;;;5000702;28;20040;-92
2022/07/06 02:22:09;;;;;;;6.72;1.38;;;14.30;99.90;;;;;;4980344;28;20491;-90
2022/07/06 02:24:35;;;;;;;4.68;1.50;;;14.20;99.90;;;;;;4999184;28;20497;-91
2022/07/06 02:27:01;;;;;;;4.78;1.15;;;14.20;99.90;;;;;;4983339;28;20076;-90
2022/07/06 02:29:27;;;;;;;8.52;1.30;;;14.10;99.90;;;;;;5014411;28;20080;-90
2022/07/06 02:31:53;;;;;;;4.97;1.30;;;14.10;99.90;;;;;;4981511;28;20057;-89
2022/07/06 02:34:19;;;;;;;4.82;1.33;;;14.00;99.90;;;;;;4999302;28;20811;-90
2022/07/06 02:36:45;;;;;;;4.47;1.55;;;13.90;99.90;;;;;;5014037;28;20053;-89
2022/07/06 02:39:10;;;;;;;5.90;1.77;;;13.80;99.90;;;;;;5001242;28;20041;-90
2022/07/06 02:41:36;;;;;;;7.18;1.95;;;13.80;99.90;;;;;;4978020;28;20142;-89
2022/07/06 02:44:02;;;;;;;2.58;1.30;;;13.70;99.90;;;;;;4979593;28;20048;-91
2022/07/06 02:46:28;;;;;;;8.68;1.40;;;13.70;99.90;;;;;;4998655;28;20505;-91
2022/07/06 02:48:53;;;;;;;2.42;1.23;;;13.60;99.90;;;;;;5012154;28;20037;-91
2022/07/06 02:51:19;;;;;;;4.70;1.52;;;13.60;99.90;;;;;;4978603;28;20118;-89
2022/07/06 02:53:45;;;;;;;4.95;1.63;;;13.60;99.90;;;;;;4998999;28;20089;-91
2022/07/06 02:56:11;;;;;;;4.70;1.65;;;13.50;99.90;;;;;;5014880;28;20052;-90
2022/07/06 02:58:37;;;;;;;2.95;1.30;;;13.50;99.90;;;;;;5009570;28;20057;-88
2022/07/06 03:01:03;;;;;;;3.40;1.17;;;13.50;99.90;;;;;;5010356;28;20052;-89
2022/07/06 03:03:29;;;;;;;3.92;1.67;;;13.40;99.90;;;;;;4998347;28;20075;-90
2022/07/06 03:05:54;;;;;;;5.47;1.65;;;13.40;99.90;;;;;;4995128;28;20045;-92
2022/07/06 03:08:20;;;;;;;2.83;1.33;;;13.20;99.90;;;;;;5012154;28;20163;-90
2022/07/06 03:10:46;;;;;;;3.78;1.23;;;13.30;99.90;;;;;;5041632;28;20064;-90
2022/07/06 03:13:12;;;;;;;4.22;1.55;;;13.20;99.90;;;;;;5008210;28;20432;-91
2022/07/06 03:15:37;;;;;;;3.65;1.45;;;13.20;99.90;;;;;;4977891;28;20093;-89
2022/07/06 03:18:03;;;;;;;3.03;1.35;;;13.10;99.90;;;;;;4978419;28;20053;-91
2022/07/06 03:20:29;;;;;;;3.85;1.27;;;13.10;99.90;;;;;;4997766;28;20501;-89
2022/07/06 03:22:55;;;;;;;3.97;1.50;;;13.10;99.90;;;;;;4997511;28;20509;-88
2022/07/06 03:25:21;;;;;;;5.40;1.63;;;13.10;99.90;;;;;;4978958;28;20071;-87
2022/07/06 03:27:47;;;;;;;3.63;1.55;;;13.00;99.90;;;;;;4977664;28;20045;-89
2022/07/06 03:30:13;;;;;;;5.00;1.85;;;13.00;99.90;;;;;;4977714;28;20635;-91
2022/07/06 03:32:39;;;;;;;6.05;1.70;;;13.00;99.90;;;;;;4981016;28;20060;-89
2022/07/06 03:35:06;;;;;;;2.90;1.40;;;12.90;99.90;;;;;;4973567;28;20036;-90
2022/07/06 03:37:32;;;;;;;3.55;1.30;;;12.90;99.90;;;;;;4982034;28;20098;-88
2022/07/06 03:39:58;;;;;;;4.25;1.40;;;12.90;99.90;;;;;;4982331;28;20040;-90
2022/07/06 03:42:24;;;;;;;2.97;1.30;;;12.80;99.90;;;;;;4980268;28;20041;-89
2022/07/06 03:44:49;;;;;;;3.70;1.50;;;12.80;99.90;;;;;;5014154;28;20041;-90
2022/07/06 03:47:15;;;;;;;4.78;1.60;;;12.80;99.90;;;;;;4981895;28;20107;-89
2022/07/06 03:49:41;;;;;;;3.10;1.42;;;12.70;99.90;;;;;;4996562;28;20037;-88
2022/07/06 03:52:07;;;;;;;3.50;1.30;;;12.60;99.90;;;;;;5000973;28;20453;-90
2022/07/06 03:54:39;;;;;;;3.80;1.70;;;12.60;99.90;;;;;;5016459;28;20037;-89
2022/07/06 03:57:04;;;;;;;3.15;1.20;;;12.50;99.90;;;;;;5013042;28;20053;-89
2022/07/06 03:59:30;;;;;;;5.13;2.05;;;12.50;99.90;;;;;;4996893;28;20052;-90
2022/07/06 04:01:56;;;;;;;5.22;1.75;;;12.40;99.90;;;;;;5001238;28;20056;-89
2022/07/06 04:04:22;;;;;;;5.45;1.73;;;12.40;99.90;;;;;;5012295;28;20051;-89
2022/07/06 04:06:48;;;;;;;3.80;1.77;;;12.40;99.90;;;;;;5000144;28;20040;-89
2022/07/06 04:09:13;;;;;;;6.90;1.50;;;12.40;99.90;;;;;;5012530;28;20044;-92
2022/07/06 04:11:39;;;;;;;5.88;1.77;;;12.40;99.90;;;;;;4980456;28;20502;-89
2022/07/06 04:14:05;;;;;;;8.00;1.60;;;12.50;99.90;;;;;;5016152;28;20041;-90
2022/07/06 04:16:31;;;;;;;5.57;1.58;;;12.60;99.90;;;;;;5011816;28;20052;-89
2022/07/06 04:18:56;;;;;;;5.53;1.42;;;12.60;99.90;;;;;;5016855;28;20159;-91
2022/07/06 04:21:22;;;;;;;7.03;1.52;;;12.70;99.90;;;;;;5002527;28;20051;-90
2022/07/06 04:23:48;;;;;;;3.45;1.20;;;12.70;99.90;;;;;;4996587;28;20474;-88
2022/07/06 04:26:14;;;;;;;6.68;1.35;;;12.70;99.90;;;;;;4999390;28;20083;-89
2022/07/06 04:28:39;;;;;;;6.80;1.70;;;12.80;99.90;;;;;;5014764;28;20101;-89
2022/07/06 04:31:05;;;;;;;4.25;1.10;;;12.80;99.90;;;;;;5012518;28;20048;-89
2022/07/06 04:33:31;;;;;;;6.57;1.20;;;12.80;99.90;;;;;;4996052;28;20712;-90
2022/07/06 04:35:57;;;;;;;3.28;1.10;;;12.90;99.90;;;;;;4979093;28;20048;-93
2022/07/06 04:38:23;;;;;;;2.28;1.00;;;12.90;99.90;;;;;;5002492;28;20060;-89
2022/07/06 04:40:48;;;;;;;7.43;1.13;;;12.90;99.90;;;;;;5005477;28;20531;-89
2022/07/06 04:43:14;;;;;;;4.85;1.35;;;13.00;99.90;;;;;;4998199;28;20491;-90
2022/07/06 04:45:40;;;;;;;3.95;1.05;;;13.00;99.90;;;;;;5007588;28;20041;-89
2022/07/06 04:48:08;;;;;;;3.28;1.02;;;13.00;99.90;;;;;;5015886;28;20540;-92
2022/07/06 04:50:33;;;;;;;2.40;0.82;;;13.00;99.90;;;;;;5008092;28;20056;-89
2022/07/06 04:52:59;;;;;;;5.53;1.00;;;13.00;99.90;;;;;;5011746;28;20052;-89
2022/07/06 04:55:25;;;;;;;2.50;0.80;;;13.10;99.90;;;;;;5014337;28;20529;-89
2022/07/06 04:57:54;;;;;;;2.40;0.75;;;13.10;99.90;;;;;;5007207;28;20411;-90
2022/07/06 05:00:21;;;;;;;3.95;0.90;;;13.20;99.90;;;;;;4981143;28;20091;-89
2022/07/06 05:02:47;;;;;;;2.35;0.70;;;13.20;99.90;;;;;;5012022;28;20045;-90
2022/07/06 05:05:13;;;;;;;3.35;0.90;;;13.30;99.90;;;;;;5013600;28;20037;-92
2022/07/06 05:07:41;;;;;;;1.15;0.55;;;13.30;99.90;;;;;;4989899;28;20033;-89
2022/07/06 05:10:09;;;;;;;4.32;1.00;;;13.50;99.90;;;;;;4979237;28;20083;-92
2022/07/06 05:12:35;;;;;;;1.40;0.73;;;13.50;99.90;;;;;;5021402;28;20052;-89
2022/07/06 05:15:01;;;;;;;2.20;0.90;;;13.60;99.90;;;;;;4987276;28;20052;-90
2022/07/06 05:17:27;;;;;;;2.85;0.75;;;13.60;99.90;;;;;;5030353;22;20053;-68
2022/07/06 05:19:53;;;;;;;3.42;0.95;;;13.70;99.90;;;;;;5025535;28;20137;-69
2022/07/06 05:22:19;;;;;;;3.85;0.93;;;13.80;99.90;;;;;;5004081;28;20053;-69
2022/07/06 05:24:44;;;;;;;3.95;0.80;;;13.90;99.90;;;;;;5012911;28;20049;-68
2022/07/06 05:27:10;;;;;;;2.75;1.17;;;14.00;99.90;;;;;;5013891;28;20451;-68
2022/07/06 05:29:36;;;;;;;4.28;1.13;;;14.00;99.90;;;;;;4994428;28;20051;-68
2022/07/06 05:32:02;;;;;;;4.05;1.40;;;14.10;99.90;;;;;;4971552;28;20089;-68
2022/07/06 05:34:28;;;;;;;5.60;1.70;;;14.10;99.90;;;;;;4990294;28;20084;-69
2022/07/06 05:36:54;;;;;;;8.55;1.10;;;14.10;99.90;;;;;;5001738;28;20125;-67
2022/07/06 05:39:22;;;;;;;8.55;1.38;;;14.20;99.90;;;;;;4998603;28;20496;-69
2022/07/06 05:41:48;;;;;;;4.85;1.10;;;14.20;99.90;;;;;;4976656;28;20081;-67
2022/07/06 05:44:14;;;;;;;4.05;1.20;;;14.20;99.90;;;;;;5000199;28;20359;-69
2022/07/06 05:46:40;;;;;;;6.75;1.30;;;14.20;99.90;;;;;;4983841;28;20046;-68
2022/07/06 05:51:51;;;;;;;6.20;1.20;;;14.30;99.90;;;;;;4997469;28;20137;-69
2022/07/06 05:54:17;;;;;;;4.25;1.02;;;14.40;99.90;;;;;;4995591;28;20060;-68
2022/07/06 05:56:43;;;;;;;6.47;1.20;;;14.50;99.90;;;;;;4998669;28;21324;-68
2022/07/06 05:59:09;;;;;;;6.95;1.15;;;14.50;99.90;;;;;;5004580;28;20053;-69
2022/07/06 06:01:34;;;;;;;4.72;1.23;;;14.70;99.90;;;;;;4994136;28;20460;-67
2022/07/06 06:04:00;;;;;;;3.58;1.20;;;14.80;99.90;;;;;;4977041;28;20080;-68
2022/07/06 06:06:27;;;;;;;4.18;1.08;;;14.90;99.90;;;;;;4984317;28;20125;-69
2022/07/06 06:08:53;;;;;;;4.85;1.42;;;14.90;99.90;;;;;;4978794;28;20079;-68
2022/07/06 06:11:18;;;;;;;4.57;1.15;;;14.90;99.90;;;;;;4972515;28;20132;-67
2022/07/06 06:13:44;;;;;;;6.47;1.30;;;14.90;99.90;;;;;;4996436;28;20054;-69
2022/07/06 06:16:10;;;;;;;8.52;1.15;;;14.90;99.90;;;;;;4999709;28;20128;-66
2022/07/06 06:18:36;;;;;;;4.00;1.15;;;14.90;99.90;;;;;;4983539;28;20606;-67
2022/07/06 06:21:02;;;;;;;6.38;1.50;;;14.90;99.90;;;;;;4982526;28;20042;-65
2022/07/06 06:23:28;;;;;;;4.13;1.25;;;15.00;99.90;;;;;;4980301;28;20152;-67
2022/07/06 06:25:54;;;;;;;3.80;1.20;;;15.10;99.90;;;;;;4982394;28;20052;-66
2022/07/06 06:28:19;;;;;;;5.40;1.10;;;15.20;99.90;;;;;;4985843;28;20091;-66
2022/07/06 06:30:45;;;;;;;4.20;1.17;;;15.20;99.90;;;;;;4973918;28;20045;-66
2022/07/06 06:33:16;;;;;;;6.10;1.17;;;15.20;99.90;;;;;;5011071;28;20571;-66
2022/07/06 06:35:47;;;;;;;5.97;1.30;;;15.30;99.90;;;;;;4985643;28;20527;-65
2022/07/06 06:38:15;;;;;;;5.78;1.10;;;15.40;99.90;;;;;;5016959;28;20484;-66
2022/07/06 06:40:41;;;;;;;3.83;1.15;;;15.40;99.90;;;;;;4999430;28;20061;-66
2022/07/06 06:43:06;;;;;;;5.35;1.40;;;15.50;99.90;;;;;;4983070;28;20050;-65
2022/07/06 06:45:33;;;;;;;7.53;1.50;;;15.60;99.90;;;;;;4994708;28;20499;-66
2022/07/06 06:47:58;;;;;;;9.18;1.38;;;15.80;99.90;;;;;;5002861;28;20079;-66
2022/07/06 06:50:24;;;;;;;4.63;1.17;;;16.00;99.90;;;;;;4968784;28;20121;-66
2022/07/06 06:52:50;;;;;;;3.40;1.05;;;16.10;99.90;;;;;;4980874;28;20115;-66
2022/07/06 06:55:17;;;;;;;4.47;1.27;;;16.20;99.90;;;;;;5011966;28;20049;-68
2022/07/06 06:57:43;;;;;;;4.88;1.00;;;16.30;99.90;;;;;;4979796;28;20129;-66
2022/07/06 07:00:10;;;;;;;3.75;1.13;;;16.40;99.90;;;;;;4999149;28;20053;-66
2022/07/06 07:02:36;;;;;;;2.78;0.80;;;16.40;99.90;;;;;;4997191;28;20052;-66
2022/07/06 07:05:02;;;;;;;5.65;1.00;;;16.40;99.90;;;;;;5012999;28;20046;-68
2022/07/06 07:07:28;;;;;;;5.10;1.30;;;16.40;99.90;;;;;;5001310;28;20042;-66
2022/07/06 07:09:54;;;;;;;4.82;1.10;;;16.40;99.90;;;;;;5001046;28;20115;-66
2022/07/06 07:12:20;;;;;;;4.45;1.00;;;16.40;99.90;;;;;;5003433;28;20045;-67
2022/07/06 07:14:47;;;;;;;4.93;1.00;;;16.30;99.90;;;;;;4980060;28;20054;-66
2022/07/06 07:17:13;;;;;;;7.20;1.17;;;16.30;99.90;;;;;;4994170;28;20062;-68
2022/07/06 07:19:40;;;;;;;5.93;0.95;;;16.20;99.90;;;;;;4976997;28;20404;-67
2022/07/06 07:22:06;;;;;;;4.22;0.90;;;16.20;99.90;;;;;;4985736;28;20104;-69
2022/07/06 07:24:32;;;;;;;6.45;1.10;;;16.10;99.90;;;;;;4997153;28;20046;-68
2022/07/06 07:26:58;;;;;;;3.33;1.00;;;16.10;99.90;;;;;;4980370;28;20056;-67
2022/07/06 07:29:24;;;;;;;5.85;1.10;;;16.20;99.90;;;;;;4997028;28;20045;-67
2022/07/06 07:31:49;;;;;;;9.30;1.65;;;16.40;99.90;;;;;;4978235;28;20050;-67
2022/07/06 07:34:16;;;;;;;5.35;0.80;;;16.60;99.90;;;;;;4980576;28;20527;-66
2022/07/06 07:36:42;;;;;;;8.45;0.82;;;16.80;99.90;;;;;;4996877;28;20049;-67
2022/07/06 07:39:07;;;;;;;5.85;0.90;;;17.10;99.90;;;;;;5015540;28;20511;-66
2022/07/06 07:41:33;;;;;;;4.90;0.98;;;17.20;99.90;;;;;;5001920;28;20188;-67
2022/07/06 07:43:59;;;;;;;3.20;0.85;;;17.40;99.90;;;;;;4998797;28;20046;-66
2022/07/06 07:46:25;;;;;;;4.75;0.70;;;17.50;99.90;;;;;;4998166;28;20474;-66
2022/07/06 07:48:50;;;;;;;4.00;0.80;;;17.70;99.50;;;;;;4995617;28;20484;-66
2022/07/06 07:51:16;;;;;;;3.67;0.90;;;17.80;99.00;;;;;;4998164;28;20042;-68
2022/07/06 07:53:42;;;;;;;4.47;0.60;;;17.90;98.30;;;;;;4998056;28;20079;-68
2022/07/06 07:56:08;;;;;;;5.68;0.75;;;18.00;98.10;;;;;;4984138;28;20054;-66
2022/07/06 07:58:34;;;;;;;6.53;0.80;;;18.10;97.60;;;;;;4998287;28;20504;-68
2022/07/06 08:01:00;;;;;;;2.03;0.50;;;18.20;97.10;;;;;;4979691;28;20455;-66
2022/07/06 08:03:26;;;;;;;4.75;1.02;;;18.20;96.70;;;;;;4999948;28;20045;-66
2022/07/06 08:05:52;;;;;;;3.53;0.63;;;18.20;96.10;;;;;;4978353;28;20046;-66
2022/07/06 08:08:18;;;;;;;3.08;0.90;;;18.20;95.50;;;;;;4998172;28;20041;-67
2022/07/06 08:10:44;;;;;;;2.47;0.70;;;18.20;95.20;;;;;;4995421;28;20054;-66
2022/07/06 08:13:10;;;;;;;1.02;0.60;;;18.10;94.50;;;;;;4995910;28;20053;-68
2022/07/06 08:15:37;;;;;;;4.03;0.93;;;18.10;94.20;;;;;;4995617;28;20061;-68
2022/07/06 08:18:03;;;;;;;2.38;0.60;;;18.10;94.70;;;;;;4997582;28;20065;-67
2022/07/06 08:20:29;;;;;;;2.63;0.70;;;18.20;94.80;;;;;;4997900;28;20564;-67
2022/07/06 08:22:56;;;;;;;3.67;0.70;;;18.20;94.70;;;;;;4999515;28;20046;-66
2022/07/06 08:25:21;;;;;;;3.78;0.63;;;18.30;94.50;;;;;;4981991;28;20121;-67
2022/07/06 08:27:48;;;;;;;3.28;0.68;;;18.30;94.00;;;;;;5000784;28;20486;-67
2022/07/06 08:30:14;;;;;;;2.40;0.68;;;18.40;93.80;;;;;;4983649;28;20056;-68
2022/07/06 08:32:41;;;;;;;2.72;0.70;;;18.40;93.10;;;;;;4999620;28;20140;-66
2022/07/06 08:35:07;;;;;;;2.80;0.70;;;18.50;92.50;;;;;;4999500;28;20050;-68
2022/07/06 08:37:33;;;;;;;4.07;0.68;;;18.60;92.40;;;;;;4998829;28;20385;-66
2022/07/06 08:39:59;;;;;;;4.20;0.77;;;18.60;92.30;;;;;;4995873;28;20080;-68
2022/07/06 08:42:33;;;;;;;3.72;0.93;;;18.70;92.30;;;;;;4999076;28;20042;-67
2022/07/06 08:45:00;;;;;;;4.22;0.93;;;18.70;92.40;;;;;;4992624;28;20057;-69
2022/07/06 08:47:27;;;;;;;2.40;0.75;;;18.70;92.30;;;;;;5009774;28;20545;-69
2022/07/06 08:49:54;;;;;;;2.90;0.65;;;18.80;92.20;;;;;;4993463;28;20457;-68
2022/07/06 08:52:20;;;;;;;1.63;0.60;;;18.90;92.00;;;;;;4990249;28;20053;-66
2022/07/06 08:54:46;;;;;;;5.70;1.00;;;18.90;91.90;;;;;;4991615;28;20605;-67
2022/07/06 08:57:13;;;;;;;4.05;0.70;;;19.00;91.90;;;;;;4962139;28;20056;-66
2022/07/06 08:59:39;;;;;;;4.10;0.90;;;18.90;91.80;;;;;;4993467;28;20100;-68
2022/07/06 09:02:05;;;;;;;1.90;0.60;;;18.80;91.80;;;;;;4989746;28;20190;-66
2022/07/06 09:04:34;;;;;;;5.53;1.08;;;18.60;92.20;;;;;;4959576;28;20128;-66
2022/07/06 09:07:00;;;;;;;4.78;1.10;;;18.50;93.10;;;;;;4981868;28;20650;-68
2022/07/06 09:09:28;;;;;;;5.00;1.08;;;18.40;93.70;;;;;;4989178;28;20038;-66
2022/07/06 09:11:54;;;;;;;2.28;0.95;;;18.30;94.00;;;;;;4994203;28;20060;-66
2022/07/06 09:14:20;;;;;;;5.80;1.05;;;18.20;94.50;;;;;;4990683;28;20717;-66
2022/07/06 09:16:51;;;;;;;3.80;0.90;;;18.20;94.60;;;;;;4958162;28;20484;-67
2022/07/06 09:19:17;;;;;;;6.05;1.02;;;18.30;94.60;;;;;;4990162;28;20554;-66
2022/07/06 09:21:43;;;;;;;5.28;0.70;;;18.50;94.10;;;;;;4990506;28;20046;-69
2022/07/06 09:24:11;;;;;;;3.42;0.70;;;18.70;93.80;;;;;;4975869;28;20042;-66
2022/07/06 09:26:37;;;;;;;3.22;0.90;;;19.00;93.50;;;;;;4973417;28;20104;-66
2022/07/06 09:29:05;;;;;;;3.15;0.60;;;19.30;93.40;;;;;;4971011;28;20053;-67
2022/07/06 09:31:31;;;;;;;6.18;1.08;;;19.60;93.20;;;;;;4974236;28;20057;-67
2022/07/06 09:34:05;;;;;;;4.32;1.08;;;19.70;92.70;;;;;;4968920;28;20053;-66
2022/07/06 09:36:48;;;;;;;4.63;1.02;;;19.70;92.30;;;;;;4987742;28;20082;-66
2022/07/06 09:39:18;;;;;;;3.92;0.88;;;19.70;92.10;;;;;;4974127;28;20050;-68
2022/07/06 09:41:45;;;;;;;2.15;1.05;;;19.80;91.50;;;;;;4976295;28;20057;-67
2022/07/06 09:44:11;;;;;;;3.22;0.70;;;20.00;91.30;;;;;;4989140;28;20050;-66
2022/07/06 09:46:42;;;;;;;2.42;0.60;;;20.10;91.20;;;;;;4972206;28;20181;-66
2022/07/06 09:49:08;;;;;;;3.28;0.70;;;20.10;90.60;;;;;;4991455;28;20042;-66
2022/07/06 09:51:38;;;;;;;4.85;0.70;;;20.00;90.00;;;;;;4989189;28;20084;-67
2022/07/06 09:54:08;;;;;;;2.72;1.10;;;19.90;89.40;;;;;;4987466;28;20085;-68
2022/07/06 09:56:42;;;;;;;2.55;0.90;;;20.00;89.10;;;;;;4989104;28;20049;-66
2022/07/06 09:59:15;;;;;;;2.03;1.00;;;20.20;90.00;;;;;;4989011;28;20053;-68
2022/07/06 10:01:42;;;;;;;4.15;0.80;;;20.40;89.00;;;;;;4953894;28;20527;-67
2022/07/06 10:04:09;;;;;;;5.18;1.00;;;20.30;87.80;;;;;;4986718;28;20494;-66
2022/07/06 10:06:36;;;;;;;3.08;0.73;;;20.30;87.00;;;;;;4975719;28;20073;-67
2022/07/06 10:09:06;;;;;;;2.55;0.70;;;20.20;86.30;;;;;;4992323;28;20389;-66
2022/07/06 10:11:37;;;;;;;4.18;0.85;;;20.10;87.30;;;;;;4977344;28;20115;-66
2022/07/06 10:14:05;;;;;;;3.45;0.80;;;20.00;88.10;;;;;;4980469;28;20160;-67
2022/07/06 10:16:31;;;;;;;1.98;0.70;;;20.10;88.70;;;;;;4997763;28;20112;-67
2022/07/06 10:18:58;;;;;;;3.70;1.05;;;20.30;88.00;;;;;;5017544;28;20056;-67
2022/07/06 10:21:24;;;;;;;2.78;0.90;;;20.50;88.10;;;;;;5002438;28;20057;-66
2022/07/06 10:23:51;;;;;;;5.05;0.90;;;20.70;87.30;;;;;;4998006;28;20083;-67
2022/07/06 10:26:18;;;;;;;3.33;0.90;;;20.80;86.10;;;;;;4962181;28;20073;-66
2022/07/06 10:28:46;;;;;;;6.07;0.85;;;21.00;85.80;;;;;;5004344;28;20053;-66
2022/07/06 10:31:15;;;;;;;4.25;0.82;;;21.10;82.50;;;;;;4979713;28;22913;-66
2022/07/06 10:33:42;;;;;;;5.22;0.95;;;21.20;82.50;;;;;;4984769;28;20056;-66
2022/07/06 10:36:08;;;;;;;3.20;0.70;;;21.40;82.10;;;;;;4985489;28;20374;-66
2022/07/06 10:38:35;;;;;;;3.13;0.85;;;21.60;81.50;;;;;;4981377;28;20115;-66
2022/07/06 10:41:09;;;;;;;5.45;0.90;;;21.80;80.80;;;;;;4981302;28;20452;-66
2022/07/06 10:43:37;;;;;;;7.60;1.00;;;22.00;80.30;;;;;;4992876;28;20152;-67
2022/07/06 10:46:08;;;;;;;3.55;1.00;;;22.20;80.30;;;;;;4981895;28;20530;-68
2022/07/06 10:48:36;;;;;;;5.80;0.90;;;22.50;79.40;;;;;;4964673;28;20141;-66
2022/07/06 10:51:04;;;;;;;3.42;1.05;;;22.60;77.70;;;;;;4975522;28;20133;-67
2022/07/06 10:53:35;;;;;;;3.95;0.90;;;22.40;76.00;;;;;;4994765;28;20132;-68
2022/07/06 10:56:04;;;;;;;3.67;0.80;;;22.20;75.70;;;;;;4983428;28;20082;-66
2022/07/06 10:58:53;;;;;;;2.78;0.88;;;22.20;75.40;;;;;;5016194;28;20404;-66
2022/07/06 11:01:20;;;;;;;3.75;0.80;;;22.10;74.60;;;;;;5017673;28;20046;-67
2022/07/06 11:03:49;;;;;;;2.13;0.63;;;21.90;73.80;;;;;;5002401;28;20405;-67
2022/07/06 11:06:19;;;;;;;3.40;0.73;;;21.90;74.00;;;;;;4967613;28;20041;-67
2022/07/06 11:08:57;;;;;;;4.47;0.80;;;22.00;74.40;;;;;;5015788;28;20045;-67
2022/07/06 11:11:41;;;;;;;3.58;0.70;;;22.40;74.60;;;;;;4994849;28;20365;-66
2022/07/06 11:14:14;;;;;;;2.67;1.00;;;22.50;73.40;;;;;;4959222;28;20103;-66
2022/07/06 11:16:48;;;;;;;6.10;0.98;;;22.40;70.30;;;;;;4989116;28;20038;-67
2022/07/06 11:19:17;;;;;;;4.13;0.80;;;22.00;70.20;;;;;;4992578;28;20070;-66
2022/07/06 11:21:56;;;;;;;5.32;0.88;;;22.00;71.10;;;;;;4997357;28;20068;-66
2022/07/06 11:24:31;;;;;;;2.47;0.70;;;22.20;70.60;;;;;;4990903;28;20570;-67
2022/07/06 11:26:58;;;;;;;5.35;0.80;;;22.40;69.40;;;;;;4981282;28;20064;-65
2022/07/06 11:29:27;;;;;;;5.03;0.80;;;22.40;69.60;;;;;;4983500;28;20515;-66
2022/07/06 11:31:55;;;;;;;3.58;0.90;;;22.20;68.60;;;;;;4985786;28;20053;-68
2022/07/06 11:34:30;;;;;;;3.50;0.68;;;22.30;68.40;;;;;;5001780;28;20046;-66
2022/07/06 11:37:07;;;;;;;3.22;0.77;;;22.50;69.40;;;;;;4998468;28;20046;-66
2022/07/06 11:39:41;;;;;;;2.42;0.80;;;22.70;69.10;;;;;;4999629;28;20042;-68
2022/07/06 11:42:09;;;;;;;2.75;0.90;;;22.90;69.10;;;;;;5001258;28;20134;-67
2022/07/06 11:44:35;;;;;;;3.60;0.80;;;23.20;69.10;;;;;;4999432;28;20478;-66
2022/07/06 11:47:03;;;;;;;2.90;0.75;;;23.60;68.50;;;;;;4979952;28;20517;-67
2022/07/06 11:49:34;;;;;;;2.67;0.70;;;23.50;67.40;;;;;;5017067;28;20041;-68
2022/07/06 11:52:00;;;;;;;4.22;0.80;;;23.30;66.80;;;;;;4998400;28;20053;-67
2022/07/06 11:54:26;;;;;;;4.65;1.15;;;23.20;66.60;;;;;;4983084;28;20696;-66
2022/07/06 11:57:03;;;;;;;5.15;0.90;;;23.30;67.80;;;;;;4997980;28;20045;-67
2022/07/06 11:59:37;;;;;;;1.95;0.82;;;23.40;67.10;;;;;;4997860;28;20061;-66
2022/07/06 12:02:11;;;;;;;3.55;0.80;;;23.50;66.70;;;;;;4980204;28;20046;-66
2022/07/06 12:04:39;;;;;;;4.57;1.17;;;23.50;65.20;;;;;;4998763;28;20348;-66
2022/07/06 12:07:08;;;;;;;5.88;0.90;;;23.40;64.70;;;;;;5000334;28;20037;-66
2022/07/06 12:09:36;;;;;;;2.25;0.70;;;23.30;64.10;;;;;;5000905;28;20506;-67
2022/07/06 12:12:03;;;;;;;4.40;0.80;;;23.10;64.60;;;;;;4997424;28;20149;-66
2022/07/06 12:14:31;;;;;;;3.25;1.10;;;22.90;64.80;;;;;;4998257;28;20054;-66
2022/07/06 12:17:06;;;;;;;3.90;0.80;;;22.80;65.10;;;;;;4991179;28;20053;-66
2022/07/06 12:19:33;;;;;;;2.25;0.77;;;22.80;65.90;;;;;;4997879;28;20492;-66
2022/07/06 12:22:01;;;;;;;3.47;0.80;;;22.60;65.10;;;;;;4999464;28;20084;-67
2022/07/06 12:24:33;;;;;;;1.70;0.70;;;22.50;65.10;;;;;;4992858;28;20049;-67
2022/07/06 12:27:17;;;;;;;1.65;0.88;;;22.30;65.70;;;;;;4996980;28;20037;-66
2022/07/06 12:29:43;;;;;;;3.15;1.00;;;22.30;66.80;;;;;;5000678;28;20046;-66
2022/07/06 12:32:36;;;;;;;5.18;0.90;;;22.40;68.10;;;;;;4997207;28;20046;-67
2022/07/06 12:35:11;;;;;;;3.20;0.70;;;22.70;67.10;;;;;;4991783;28;20037;-66
2022/07/06 12:37:37;;;;;;;3.08;0.82;;;22.70;66.40;;;;;;4983108;28;20046;-66
2022/07/06 12:40:14;;;;;;;2.47;0.80;;;22.70;65.90;;;;;;4986088;28;20046;-66
2022/07/06 12:42:47;;;;;;;6.85;0.80;;;22.80;66.40;;;;;;4996482;28;20123;-67
2022/07/06 12:45:13;;;;;;;1.95;0.75;;;22.80;65.90;;;;;;5001268;28;20124;-67
2022/07/06 12:47:42;;;;;;;4.10;0.80;;;22.70;65.60;;;;;;4992570;28;20042;-67
2022/07/06 12:50:11;;;;;;;3.05;0.70;;;22.60;65.90;;;;;;4982513;28;20042;-66
2022/07/06 12:52:37;;;;;;;3.00;0.90;;;22.40;66.40;;;;;;5000154;28;20042;-67
2022/07/06 12:55:04;;;;;;;1.60;0.73;;;22.30;66.80;;;;;;4982528;28;20503;-66